Time;durP1;ratioP1;P1;durP2;ratioP2;P2;SDS_P1;SDS_P2;PMS_P1;PMS_P2;Temp;Humidity;BMP_temperature;BMP_pressure;BME280_temperature;BME280_humidity;BME280_pressure;Samples;Min_cycle;Max_cycle;Signal;HPM_P1;HPM_P2
2023/05/18 00:01:39;;;;;;;11.27;5.55;;;;;;;9.72;100.00;101536.72;4923263;29;20036;-74
2023/05/18 00:04:06;;;;;;;12.13;5.28;;;;;;;9.72;100.00;101535.84;4935514;29;20025;-74
2023/05/18 00:06:32;;;;;;;10.68;5.22;;;;;;;9.69;100.00;101530.81;4923308;29;20040;-74
2023/05/18 00:08:58;;;;;;;10.00;5.07;;;;;;;9.67;100.00;101538.56;4937846;29;20088;-74
2023/05/18 00:11:23;;;;;;;8.95;5.07;;;;;;;9.63;100.00;101533.53;4923292;29;20481;-74
2023/05/18 00:13:48;;;;;;;10.88;5.50;;;;;;;9.61;100.00;101530.22;4923238;29;20040;-75
2023/05/18 00:16:14;;;;;;;12.43;5.45;;;;;;;9.60;100.00;101522.16;4937492;29;20046;-74
2023/05/18 00:18:40;;;;;;;10.98;5.43;;;;;;;9.60;100.00;101522.97;4923043;29;20035;-74
2023/05/18 00:21:07;;;;;;;10.57;4.78;;;;;;;9.55;100.00;101519.31;4937778;29;20036;-75
2023/05/18 00:23:33;;;;;;;9.52;5.18;;;;;;;9.54;100.00;101523.22;4937387;29;20040;-75
2023/05/18 00:25:59;;;;;;;10.32;5.22;;;;;;;9.48;100.00;101522.31;4921818;29;20039;-75
2023/05/18 00:28:24;;;;;;;10.20;5.28;;;;;;;9.47;100.00;101517.03;4937400;29;20028;-74
2023/05/18 00:30:50;;;;;;;11.50;5.40;;;;;;;9.42;100.00;101531.69;4921431;29;20031;-74
2023/05/18 00:33:15;;;;;;;11.15;5.30;;;;;;;9.38;100.00;101520.25;4937484;29;20032;-74
2023/05/18 00:35:41;;;;;;;10.70;5.22;;;;;;;9.37;100.00;101517.78;4921934;29;20032;-74
2023/05/18 00:38:07;;;;;;;8.10;4.70;;;;;;;9.37;100.00;101517.78;4935058;29;20024;-75
2023/05/18 00:40:32;;;;;;;8.93;5.05;;;;;;;9.32;100.00;101526.88;4937409;29;20035;-74
2023/05/18 00:42:59;;;;;;;10.25;5.07;;;;;;;9.31;100.00;101519.66;4922615;29;20032;-74
2023/05/18 00:45:25;;;;;;;11.73;5.60;;;;;;;9.31;100.00;101524.38;4937227;29;20056;-74
2023/05/18 00:47:51;;;;;;;12.13;5.35;;;;;;;9.25;100.00;101526.25;4937051;29;20075;-74
2023/05/18 00:50:17;;;;;;;9.07;5.10;;;;;;;9.23;100.00;101525.66;4918536;29;20025;-74
2023/05/18 00:52:42;;;;;;;9.32;4.70;;;;;;;9.22;100.00;101525.91;4921842;29;20028;-74
2023/05/18 00:55:08;;;;;;;11.70;5.38;;;;;;;9.17;100.00;101532.25;4936969;29;20117;-74
2023/05/18 00:57:35;;;;;;;11.20;4.97;;;;;;;9.14;100.00;101525.28;4921048;29;20044;-74
2023/05/18 01:00:01;;;;;;;8.30;4.75;;;;;;;9.13;100.00;101528.31;4936633;29;20038;-74
2023/05/18 01:02:29;;;;;;;13.75;5.40;;;;;;;9.09;100.00;101518.84;4936876;29;20393;-74
2023/05/18 01:04:54;;;;;;;11.98;5.25;;;;;;;9.07;100.00;101524.66;4922358;29;20142;-74
2023/05/18 01:07:25;;;;;;;10.30;5.47;;;;;;;9.06;100.00;101519.38;4920879;29;20111;-74
2023/05/18 01:09:51;;;;;;;10.38;5.60;;;;;;;9.05;100.00;101521.28;4922402;29;20032;-74
2023/05/18 01:12:24;;;;;;;9.38;4.95;;;;;;;9.04;100.00;101519.63;4936625;29;20397;-74
2023/05/18 01:14:51;;;;;;;10.43;5.18;;;;;;;9.00;100.00;101517.63;4920809;29;20056;-74
2023/05/18 01:17:54;;;;;;;10.20;4.90;;;;;;;8.99;100.00;101516.78;4921774;29;20032;-74
2023/05/18 01:20:28;;;;;;;11.13;5.40;;;;;;;8.97;100.00;101510.69;4922332;29;20063;-74
2023/05/18 01:22:57;;;;;;;11.60;5.22;;;;;;;8.96;100.00;101514.53;4922084;29;20047;-74
2023/05/18 01:25:50;;;;;;;11.63;5.03;;;;;;;8.92;100.00;101510.63;4921984;29;20072;-74
2023/05/18 01:28:17;;;;;;;12.38;5.57;;;;;;;8.91;100.00;101514.47;4936625;29;20032;-74
2023/05/18 01:30:42;;;;;;;9.35;5.22;;;;;;;8.90;100.00;101510.88;4936148;29;20038;-74
2023/05/18 01:33:08;;;;;;;10.77;5.13;;;;;;;8.90;100.00;101519.19;4906933;29;20029;-74
2023/05/18 01:35:35;;;;;;;9.70;5.05;;;;;;;8.86;100.00;101512.50;4940096;29;20059;-74
2023/05/18 01:38:01;;;;;;;11.00;5.50;;;;;;;8.82;100.00;101504.94;4939842;29;20038;-74
2023/05/18 01:40:26;;;;;;;7.88;4.95;;;;;;;8.84;100.00;101511.91;4924004;29;20067;-74
2023/05/18 01:42:54;;;;;;;10.73;5.07;;;;;;;8.79;100.00;101505.47;4938594;29;20039;-74
2023/05/18 01:45:21;;;;;;;9.82;4.93;;;;;;;8.78;100.00;101509.34;4908425;29;20374;-74
2023/05/18 01:47:47;;;;;;;10.88;5.28;;;;;;;8.77;100.00;101513.19;4939675;29;20485;-74
2023/05/18 01:50:15;;;;;;;12.57;5.60;;;;;;;8.73;100.00;101507.34;4940029;28;20092;-74
2023/05/18 01:52:51;;;;;;;8.68;4.97;;;;;;;8.72;100.00;101506.50;4939264;29;20111;-74
2023/05/18 01:55:16;;;;;;;11.20;5.78;;;;;;;8.72;100.00;101506.50;4940452;29;20519;-75
2023/05/18 01:57:43;;;;;;;10.30;5.18;;;;;;;8.70;100.00;101502.31;4942985;29;20032;-74
2023/05/18 02:00:09;;;;;;;10.55;5.20;;;;;;;8.66;100.00;101502.00;4926839;29;20036;-74
2023/05/18 02:02:34;;;;;;;10.45;5.47;;;;;;;8.67;100.00;101502.84;4943950;29;20039;-74
2023/05/18 02:05:00;;;;;;;12.57;5.25;;;;;;;8.64;100.00;101500.59;4926272;29;20414;-74
2023/05/18 02:07:26;;;;;;;11.50;5.22;;;;;;;8.64;100.00;101503.34;4941152;29;20039;-74
2023/05/18 02:09:51;;;;;;;10.30;5.22;;;;;;;8.64;100.00;101506.94;4940247;29;20028;-74
2023/05/18 02:12:17;;;;;;;9.32;4.88;;;;;;;8.61;100.00;101513.00;4938883;29;20040;-74
2023/05/18 02:14:42;;;;;;;11.45;5.85;;;;;;;8.59;100.00;101506.06;4939023;29;20028;-74
2023/05/18 02:17:07;;;;;;;10.70;5.07;;;;;;;8.58;100.00;101509.88;4938442;29;20027;-74
2023/05/18 02:19:37;;;;;;;8.95;4.82;;;;;;;8.55;100.00;101510.41;4940028;29;20044;-74
2023/05/18 02:22:05;;;;;;;9.55;4.85;;;;;;;8.55;100.00;101516.78;4939876;29;20063;-74
2023/05/18 02:24:31;;;;;;;11.73;5.57;;;;;;;8.52;100.00;101506.22;4907328;29;20027;-74
2023/05/18 02:26:57;;;;;;;10.25;5.10;;;;;;;8.52;100.00;101508.16;4938427;29;20036;-74
2023/05/18 02:29:22;;;;;;;9.15;4.97;;;;;;;8.54;100.00;101514.28;4922895;29;20047;-74
2023/05/18 02:31:48;;;;;;;10.05;5.68;;;;;;;8.51;100.00;101510.09;4939428;29;20461;-74
2023/05/18 02:34:14;;;;;;;10.18;4.90;;;;;;;8.52;100.00;101514.53;4922824;29;20036;-74
2023/05/18 02:36:41;;;;;;;10.30;5.18;;;;;;;8.49;100.00;101515.88;4936784;29;20065;-74
2023/05/18 02:39:07;;;;;;;10.07;5.28;;;;;;;8.48;100.00;101516.13;4919407;29;20490;-74
2023/05/18 02:41:32;;;;;;;9.93;5.47;;;;;;;8.48;100.00;101508.66;4938393;29;20107;-74
2023/05/18 02:43:58;;;;;;;10.10;4.93;;;;;;;8.47;100.00;101508.94;4938395;29;20031;-74
2023/05/18 02:46:23;;;;;;;11.70;5.70;;;;;;;8.45;100.00;101502.81;4922352;29;20035;-74
2023/05/18 02:48:49;;;;;;;11.43;5.65;;;;;;;8.43;100.00;101511.34;4939383;29;20082;-74
2023/05/18 02:51:14;;;;;;;11.27;5.78;;;;;;;8.46;100.00;101513.63;4938482;29;20481;-74
2023/05/18 02:53:42;;;;;;;9.00;4.90;;;;;;;8.43;100.00;101513.28;4930290;29;20035;-74
2023/05/18 02:56:08;;;;;;;10.05;5.57;;;;;;;8.42;100.00;101512.47;4922641;29;20074;-74
2023/05/18 02:58:34;;;;;;;9.43;4.97;;;;;;;8.42;100.00;101522.72;4939685;29;20036;-74
2023/05/18 03:01:02;;;;;;;8.98;5.13;;;;;;;8.43;100.00;101518.84;4937579;29;20027;-74
2023/05/18 03:03:28;;;;;;;9.60;5.07;;;;;;;8.40;100.00;101517.41;4939540;29;20039;-74
2023/05/18 03:05:53;;;;;;;10.43;5.35;;;;;;;8.37;100.00;101514.28;4906445;29;20032;-74
2023/05/18 03:08:21;;;;;;;13.02;5.50;;;;;;;8.39;100.00;101514.91;4922196;29;20039;-74
2023/05/18 03:10:47;;;;;;;12.13;5.80;;;;;;;8.38;100.00;101519.56;4922328;29;20032;-74
2023/05/18 03:13:13;;;;;;;11.65;5.25;;;;;;;8.40;100.00;101519.34;4934753;29;20088;-74
2023/05/18 03:15:39;;;;;;;12.10;5.88;;;;;;;8.39;100.00;101518.50;4936693;29;20036;-74
2023/05/18 03:18:05;;;;;;;13.98;6.18;;;;;;;8.38;100.00;101513.19;4937836;29;20032;-74
2023/05/18 03:20:30;;;;;;;12.65;5.22;;;;;;;8.43;100.00;101514.13;4937829;29;20473;-74
2023/05/18 03:22:56;;;;;;;10.02;5.22;;;;;;;8.41;100.00;101518.25;4922050;29;20046;-74
2023/05/18 03:25:24;;;;;;;8.85;5.32;;;;;;;8.41;100.00;101515.47;4920535;29;20036;-74
2023/05/18 03:27:51;;;;;;;9.32;4.88;;;;;;;8.41;100.00;101512.72;4914062;29;20028;-74
2023/05/18 03:30:18;;;;;;;10.00;5.32;;;;;;;8.44;100.00;101517.72;4890434;29;20473;-74
2023/05/18 03:32:44;;;;;;;12.25;5.47;;;;;;;8.38;100.00;101515.97;4937747;29;20258;-74
2023/05/18 03:35:09;;;;;;;11.60;5.18;;;;;;;8.39;100.00;101523.22;4938874;29;20035;-74
2023/05/18 03:37:35;;;;;;;10.88;5.25;;;;;;;8.41;100.00;101521.88;4934646;29;20064;-74
2023/05/18 03:40:13;;;;;;;11.90;6.05;;;;;;;8.44;100.00;101512.19;4918239;29;20040;-74
2023/05/18 03:42:39;;;;;;;11.00;5.22;;;;;;;8.39;100.00;101509.38;4937780;29;20028;-74
2023/05/18 03:45:06;;;;;;;8.50;5.25;;;;;;;8.37;100.00;101508.75;4921621;29;20047;-74
2023/05/18 03:47:32;;;;;;;13.60;6.03;;;;;;;8.43;100.00;101507.75;4905967;29;20035;-74
2023/05/18 03:49:58;;;;;;;14.05;5.72;;;;;;;8.42;100.00;101506.09;4921825;29;20194;-74
2023/05/18 03:52:23;;;;;;;12.82;5.57;;;;;;;8.41;100.00;101504.41;4929746;29;20042;-74
2023/05/18 03:54:49;;;;;;;11.35;5.40;;;;;;;8.40;100.00;101500.81;4938699;29;20056;-74
2023/05/18 03:57:15;;;;;;;13.50;5.63;;;;;;;8.39;100.00;101501.06;4937387;29;20127;-74
2023/05/18 03:59:41;;;;;;;9.93;5.20;;;;;;;8.40;100.00;101502.75;4921339;29;20083;-74
2023/05/18 04:02:07;;;;;;;13.35;5.57;;;;;;;8.39;100.00;101495.53;4938472;29;20063;-74
2023/05/18 04:04:32;;;;;;;10.55;5.20;;;;;;;8.37;100.00;101494.91;4937227;29;20043;-74
2023/05/18 04:07:00;;;;;;;10.15;5.55;;;;;;;8.37;100.00;101498.50;4918419;29;20051;-75
2023/05/18 04:09:26;;;;;;;11.35;5.80;;;;;;;8.40;100.00;101492.50;4934074;29;20036;-74
2023/05/18 04:11:52;;;;;;;10.52;5.93;;;;;;;8.37;100.00;101494.91;4921729;29;20389;-74
2023/05/18 04:14:19;;;;;;;9.07;5.05;;;;;;;8.37;100.00;101495.75;4937294;28;20028;-74
2023/05/18 04:16:45;;;;;;;9.77;5.95;;;;;;;8.37;100.00;101497.69;4936987;29;20035;-74
2023/05/18 04:19:12;;;;;;;12.07;5.82;;;;;;;8.37;100.00;101497.69;4921469;29;20040;-74
2023/05/18 04:21:42;;;;;;;12.50;5.57;;;;;;;8.38;100.00;101502.13;4938526;29;20028;-74
2023/05/18 04:24:08;;;;;;;9.75;5.25;;;;;;;8.38;100.00;101504.88;4937350;28;20612;-74
2023/05/18 04:26:35;;;;;;;11.70;5.97;;;;;;;8.38;100.00;101507.66;4921571;29;20024;-74
2023/05/18 04:29:01;;;;;;;13.63;5.70;;;;;;;8.34;100.00;101503.72;4937837;29;20070;-74
2023/05/18 04:31:28;;;;;;;10.35;5.50;;;;;;;8.32;100.00;101505.91;4937236;29;20397;-74
2023/05/18 04:33:57;;;;;;;14.35;5.57;;;;;;;8.33;100.00;101510.34;4941055;29;20035;-74
2023/05/18 04:36:24;;;;;;;13.60;5.85;;;;;;;8.31;100.00;101499.53;4940888;29;20058;-76
2023/05/18 04:38:50;;;;;;;8.95;5.32;;;;;;;8.32;100.00;101501.19;4925213;29;20028;-76
2023/05/18 04:41:19;;;;;;;11.68;5.55;;;;;;;8.30;100.00;101508.91;4908935;29;20032;-76
2023/05/18 04:43:46;;;;;;;13.63;6.05;;;;;;;8.29;100.00;101501.72;4924997;29;20102;-76
2023/05/18 04:46:12;;;;;;;11.32;5.60;;;;;;;8.31;100.00;101510.63;4937242;29;20039;-76
2023/05/18 04:48:38;;;;;;;14.02;6.35;;;;;;;8.33;100.00;101507.56;4921363;29;20036;-76
2023/05/18 04:51:04;;;;;;;11.18;5.53;;;;;;;8.31;100.00;101502.31;4940448;29;20059;-76
2023/05/18 04:53:32;;;;;;;13.45;5.85;;;;;;;8.31;100.00;101504.25;4942256;29;20489;-76
2023/05/18 04:55:59;;;;;;;11.05;5.53;;;;;;;8.26;100.00;101507.75;4918616;29;20060;-74
2023/05/18 04:58:26;;;;;;;12.48;5.50;;;;;;;8.26;100.00;101502.22;4918045;29;20064;-74
2023/05/18 05:00:52;;;;;;;13.38;5.90;;;;;;;8.31;100.00;101504.25;4920783;29;20128;-74
2023/05/18 05:03:17;;;;;;;10.48;5.63;;;;;;;8.32;100.00;101511.44;4937051;29;20084;-74
2023/05/18 05:05:43;;;;;;;11.25;5.90;;;;;;;8.35;100.00;101513.69;4921290;29;20470;-74
2023/05/18 05:08:08;;;;;;;11.55;5.95;;;;;;;8.36;100.00;101515.38;4936905;29;20036;-74
2023/05/18 05:10:34;;;;;;;9.98;4.97;;;;;;;8.40;100.00;101517.41;4922222;29;20046;-74
2023/05/18 05:12:59;;;;;;;11.15;5.10;;;;;;;8.44;100.00;101526.03;4921240;29;20035;-74
2023/05/18 05:15:25;;;;;;;11.40;5.47;;;;;;;8.45;100.00;101523.03;4936537;29;20458;-75
2023/05/18 05:17:50;;;;;;;10.70;5.22;;;;;;;8.44;100.00;101518.59;4937015;29;20017;-74
2023/05/18 05:20:16;;;;;;;11.77;5.05;;;;;;;8.45;100.00;101522.19;4936655;29;20032;-74
2023/05/18 05:22:42;;;;;;;15.30;5.95;;;;;;;8.48;100.00;101532.75;4917957;29;20028;-75
2023/05/18 05:25:07;;;;;;;12.05;5.88;;;;;;;8.57;100.00;101524.84;4903807;29;20024;-74
2023/05/18 05:27:33;;;;;;;10.68;5.30;;;;;;;8.67;100.00;101531.34;4936474;29;20096;-74
2023/05/18 05:29:58;;;;;;;11.18;5.20;;;;;;;8.64;100.00;101531.88;4936259;29;20032;-74
2023/05/18 05:32:24;;;;;;;10.50;5.30;;;;;;;8.69;100.00;101529.19;4936576;29;20043;-74
2023/05/18 05:34:50;;;;;;;9.77;4.78;;;;;;;8.76;100.00;101533.69;4917436;29;20033;-74
2023/05/18 05:37:16;;;;;;;12.35;5.28;;;;;;;8.81;100.00;101531.00;4936256;29;20103;-74
2023/05/18 05:39:41;;;;;;;11.27;4.88;;;;;;;8.82;100.00;101527.09;4919647;29;20493;-74
2023/05/18 05:42:07;;;;;;;9.63;4.95;;;;;;;8.89;100.00;101533.31;4921559;29;20481;-74
2023/05/18 05:44:33;;;;;;;11.82;5.22;;;;;;;8.91;100.00;101528.31;4920244;29;20032;-74
2023/05/18 05:46:58;;;;;;;9.18;4.65;;;;;;;8.97;100.00;101532.84;4920206;29;20121;-74
2023/05/18 05:49:24;;;;;;;10.27;5.03;;;;;;;9.03;100.00;101533.75;4921534;29;20313;-75
2023/05/18 05:51:50;;;;;;;11.90;5.70;;;;;;;9.05;100.00;101531.53;4935934;29;20028;-74
2023/05/18 05:54:15;;;;;;;14.50;6.07;;;;;;;9.12;100.00;101533.03;4920534;29;20028;-74
2023/05/18 05:56:40;;;;;;;11.75;5.05;;;;;;;9.15;100.00;101538.03;4933270;29;20093;-74
2023/05/18 05:59:06;;;;;;;12.77;5.93;;;;;;;9.22;100.00;101537.00;4936917;29;20400;-74
2023/05/18 06:01:33;;;;;;;12.23;5.63;;;;;;;9.28;100.00;101533.22;4936019;29;20394;-75
2023/05/18 06:03:59;;;;;;;12.10;5.25;;;;;;;9.34;100.00;101541.31;4926392;29;20028;-74
2023/05/18 06:06:24;;;;;;;9.68;5.03;;;;;;;9.41;100.00;101541.09;4927054;29;20043;-74
2023/05/18 06:08:50;;;;;;;11.93;4.68;;;;;;;9.47;100.00;101537.28;4926695;29;20036;-75
2023/05/18 06:11:15;;;;;;;15.48;5.68;;;;;;;9.55;100.00;101531.25;4943201;29;20031;-74
2023/05/18 06:13:41;;;;;;;11.15;5.20;;;;;;;9.62;100.00;101537.44;4924643;29;20383;-75
2023/05/18 06:16:06;;;;;;;12.43;5.78;;;;;;;9.70;100.00;101538.91;4922983;29;20043;-75
2023/05/18 06:18:32;;;;;;;12.93;5.72;;;;;;;9.79;100.00;101533.69;4942478;29;20036;-75
2023/05/18 06:20:57;;;;;;;14.90;6.55;;;;;;;9.87;100.00;101533.22;4942604;29;20498;-74
2023/05/18 06:23:23;;;;;;;11.35;5.50;;;;;;;9.93;100.00;101534.94;4926654;29;20027;-74
2023/05/18 06:25:48;;;;;;;12.07;6.40;;;;;;;10.02;100.00;101540.81;4923624;29;20059;-75
2023/05/18 06:28:14;;;;;;;13.18;5.32;;;;;;;10.11;100.00;101542.00;4926688;29;20058;-74
2023/05/18 06:30:40;;;;;;;11.02;5.20;;;;;;;10.21;100.00;101538.47;4943168;29;20036;-75
2023/05/18 06:33:06;;;;;;;10.73;5.78;;;;;;;10.30;100.00;101536.91;4922875;29;20083;-75
2023/05/18 06:35:32;;;;;;;13.32;5.63;;;;;;;10.39;100.00;101535.31;4939564;29;20036;-75
2023/05/18 06:37:57;;;;;;;10.73;6.03;;;;;;;10.51;100.00;101538.72;4938430;29;20066;-75
2023/05/18 06:40:23;;;;;;;11.25;5.30;;;;;;;10.61;100.00;101537.09;4922759;29;20036;-77
2023/05/18 06:42:48;;;;;;;10.95;5.22;;;;;;;10.72;100.00;101544.38;4919411;29;20036;-78
2023/05/18 06:45:14;;;;;;;13.15;6.07;;;;;;;10.86;100.00;101541.94;4938872;29;20043;-74
2023/05/18 06:47:41;;;;;;;9.77;5.03;;;;;;;10.96;100.00;101545.59;4939362;29;20052;-74
2023/05/18 06:50:06;;;;;;;11.55;4.95;;;;;;;11.10;100.00;101542.31;4935225;29;20448;-78
2023/05/18 06:52:32;;;;;;;9.48;4.95;;;;;;;11.23;100.00;101550.16;4922161;29;20040;-74
2023/05/18 06:55:00;;;;;;;9.82;5.28;;;;;;;11.39;100.00;101543.53;4906514;29;20067;-77
2023/05/18 06:57:25;;;;;;;14.35;4.65;;;;;;;11.55;100.00;101546.34;4918979;29;20054;-76
2023/05/18 06:59:52;;;;;;;7.85;4.60;;;;;;;11.71;100.00;101550.81;4922358;29;20036;-76
2023/05/18 07:02:19;;;;;;;12.38;5.07;;;;;;;11.88;100.00;101546.97;4933646;29;20040;-76
2023/05/18 07:04:45;;;;;;;10.75;6.00;;;;;;;12.03;100.00;101542.22;4935034;29;20095;-76
2023/05/18 07:07:11;;;;;;;10.77;5.25;;;;;;;12.19;100.00;101545.00;4918863;29;20032;-76
2023/05/18 07:09:36;;;;;;;9.48;4.72;;;;;;;12.37;100.00;101543.59;4934845;29;20040;-76
2023/05/18 07:12:02;;;;;;;10.00;5.13;;;;;;;12.49;100.00;101550.53;4918722;29;20092;-76
2023/05/18 07:14:27;;;;;;;12.90;5.43;;;;;;;12.65;100.00;101548.56;4934756;29;20059;-76
2023/05/18 07:16:53;;;;;;;10.98;5.55;;;;;;;12.84;100.00;101550.72;4918830;29;20039;-76
2023/05/18 07:19:18;;;;;;;15.00;5.60;;;;;;;13.00;100.00;101548.72;4919144;29;20024;-76
2023/05/18 07:21:43;;;;;;;12.07;5.75;;;;;;;13.15;100.00;101543.91;4919034;29;20043;-76
2023/05/18 07:24:09;;;;;;;10.32;4.88;;;;;;;13.33;100.00;101547.19;4934682;29;20036;-76
2023/05/18 07:26:34;;;;;;;11.95;4.82;;;;;;;13.49;100.00;101539.56;4931977;29;20036;-76
2023/05/18 07:29:00;;;;;;;8.10;4.07;;;;;;;13.63;100.00;101546.19;4918656;29;20390;-76
2023/05/18 07:31:26;;;;;;;10.40;5.65;;;;;;;13.79;100.00;101550.53;4934479;28;20036;-76
2023/05/18 07:33:51;;;;;;;9.68;4.70;;;;;;;13.95;100.00;101531.69;4920130;29;20092;-76
2023/05/18 07:36:17;;;;;;;11.73;4.18;;;;;;;14.11;100.00;101540.78;4932851;29;20494;-76
2023/05/18 07:38:42;;;;;;;9.80;4.80;;;;;;;14.26;100.00;101531.41;4919737;29;20032;-76
2023/05/18 07:41:08;;;;;;;15.63;5.07;;;;;;;14.42;100.00;101534.88;4934852;29;20043;-76
2023/05/18 07:43:34;;;;;;;11.32;4.80;;;;;;;14.53;100.00;101533.69;4918518;29;20393;-76
2023/05/18 07:45:59;;;;;;;14.15;4.93;;;;;;;14.71;100.00;101535.72;4919340;29;20088;-77
2023/05/18 07:48:25;;;;;;;9.23;4.15;;;;;;;14.86;100.00;101534.72;4934350;29;20099;-76
2023/05/18 07:50:51;;;;;;;7.50;4.22;;;;;;;15.03;100.00;101525.81;4918743;29;20084;-77
2023/05/18 07:53:16;;;;;;;7.78;4.00;;;;;;;15.20;100.00;101522.53;4920381;29;20040;-77
2023/05/18 07:55:42;;;;;;;9.52;4.50;;;;;;;15.40;100.00;101524.19;4934257;28;20052;-77
2023/05/18 07:58:08;;;;;;;11.25;5.30;;;;;;;15.49;100.00;101521.53;4934196;29;20028;-77
2023/05/18 08:00:33;;;;;;;8.55;4.38;;;;;;;15.72;100.00;101520.69;4934096;28;20028;-77
2023/05/18 08:03:02;;;;;;;13.75;5.72;;;;;;;15.85;100.00;101524.66;4918603;29;20077;-77
2023/05/18 08:05:27;;;;;;;12.52;4.93;;;;;;;16.03;100.00;101528.56;4938329;29;20036;-76
2023/05/18 08:07:53;;;;;;;8.32;4.38;;;;;;;16.22;100.00;101520.13;4922412;28;20039;-77
2023/05/18 08:10:18;;;;;;;13.52;4.78;;;;;;;16.38;100.00;101513.09;4923331;29;20039;-77
2023/05/18 08:12:44;;;;;;;9.70;4.70;;;;;;;16.58;100.00;101513.84;4923384;29;20107;-77
2023/05/18 08:15:10;;;;;;;11.27;5.45;;;;;;;16.68;100.00;101517.25;4937875;29;20087;-77
2023/05/18 08:17:35;;;;;;;11.82;5.13;;;;;;;16.80;100.00;101513.13;4937822;29;20060;-77
2023/05/18 08:20:01;;;;;;;10.70;4.47;;;;;;;16.98;100.00;101509.41;4923132;29;20690;-77
2023/05/18 08:22:26;;;;;;;11.70;4.95;;;;;;;17.09;100.00;101508.03;4922059;29;20043;-77
2023/05/18 08:24:53;;;;;;;11.35;5.78;;;;;;;17.25;100.00;101513.34;4923031;29;20029;-77
2023/05/18 08:27:18;;;;;;;8.30;3.75;;;;;;;17.39;96.27;101511.31;4922993;29;20034;-77
2023/05/18 08:29:44;;;;;;;12.45;4.88;;;;;;;17.54;96.89;101510.13;4921864;29;20543;-77
2023/05/18 08:32:10;;;;;;;13.35;5.32;;;;;;;17.67;98.92;101511.22;4922785;29;20043;-77
2023/05/18 08:34:35;;;;;;;13.35;5.45;;;;;;;17.75;95.24;101511.28;4937559;29;20047;-77
2023/05/18 08:37:01;;;;;;;11.73;4.60;;;;;;;17.91;95.29;101508.94;4921775;29;20032;-78
2023/05/18 08:39:30;;;;;;;12.10;4.80;;;;;;;18.06;96.15;101499.31;4922957;29;20501;-77
2023/05/18 08:42:03;;;;;;;13.55;5.30;;;;;;;18.17;96.06;101500.72;4934515;29;20064;-77
2023/05/18 08:44:29;;;;;;;;;;;;;;;18.26;95.35;101504.41;4916626;29;20032;-78
2023/05/18 08:46:55;;;;;;;10.43;5.38;;;;;;;18.34;90.92;101501.97;4921159;29;19915;-77
2023/05/18 08:49:20;;;;;;;14.50;5.80;;;;;;;18.42;93.54;101499.19;4922966;29;20389;-77
2023/05/18 08:51:56;;;;;;;12.57;4.63;;;;;;;18.59;92.68;101492.81;4921359;29;20036;-78
2023/05/18 08:54:22;;;;;;;12.63;5.47;;;;;;;18.66;90.68;101495.16;4905298;29;20464;-78
2023/05/18 08:56:48;;;;;;;11.95;5.28;;;;;;;18.76;86.87;101497.72;4933974;29;20091;-77
2023/05/18 08:59:18;;;;;;;11.82;5.13;;;;;;;18.83;83.55;101495.22;4900848;29;20521;-77
2023/05/18 09:01:44;;;;;;;11.25;4.70;;;;;;;18.98;84.19;101491.16;4936907;29;20087;-78
2023/05/18 09:04:09;;;;;;;11.90;5.22;;;;;;;19.07;82.18;101494.00;4936831;29;20536;-77
2023/05/18 09:06:35;;;;;;;13.23;5.53;;;;;;;19.12;76.09;101493.84;4937263;29;20043;-77
2023/05/18 09:09:05;;;;;;;13.77;4.75;;;;;;;19.23;77.28;101485.91;4922255;29;20036;-78
2023/05/18 09:11:31;;;;;;;13.73;5.68;;;;;;;19.27;76.40;101490.53;4936899;29;20127;-77
2023/05/18 09:13:58;;;;;;;13.60;5.07;;;;;;;19.23;76.15;101491.53;4936537;29;20038;-77
2023/05/18 09:16:23;;;;;;;11.10;4.70;;;;;;;19.40;78.57;101491.56;4936584;29;20036;-78
2023/05/18 09:18:49;;;;;;;10.23;4.78;;;;;;;19.45;76.63;101496.19;4920830;29;20101;-77
2023/05/18 09:21:14;;;;;;;12.32;4.85;;;;;;;19.43;74.51;101493.72;4936784;29;20036;-78
2023/05/18 09:23:40;;;;;;;12.40;5.10;;;;;;;19.47;73.67;101489.06;4936642;29;20493;-78
2023/05/18 09:26:08;;;;;;;12.32;5.05;;;;;;;19.48;76.33;101489.91;4922027;29;20059;-78
2023/05/18 09:28:35;;;;;;;15.40;5.57;;;;;;;19.41;73.88;101488.38;4936569;29;20032;-78
2023/05/18 09:31:02;;;;;;;14.27;5.30;;;;;;;19.33;73.76;101496.84;4932980;29;20107;-77
2023/05/18 09:33:32;;;;;;;11.40;4.75;;;;;;;19.30;74.82;101489.03;4936370;29;20114;-78
2023/05/18 09:35:58;;;;;;;10.75;5.20;;;;;;;19.30;79.60;101489.88;4936655;29;20091;-78
2023/05/18 09:38:23;;;;;;;13.95;5.25;;;;;;;19.26;74.08;101499.31;4936526;28;20028;-77
2023/05/18 09:40:49;;;;;;;11.48;4.75;;;;;;;19.22;76.41;101495.50;4936425;29;20310;-78
2023/05/18 09:43:18;;;;;;;11.68;4.82;;;;;;;19.18;77.25;101495.34;4920361;29;20036;-77
2023/05/18 09:45:45;;;;;;;14.95;5.85;;;;;;;19.09;77.88;101495.31;4935979;29;20032;-78
2023/05/18 09:48:10;;;;;;;12.15;5.68;;;;;;;19.16;77.69;101500.44;4936123;29;20040;-77
2023/05/18 09:50:38;;;;;;;12.00;5.70;;;;;;;19.09;78.04;101495.31;4936592;29;20043;-77
2023/05/18 09:53:08;;;;;;;12.98;6.22;;;;;;;19.10;81.00;101496.16;4920142;29;20433;-77
2023/05/18 09:55:36;;;;;;;10.88;5.38;;;;;;;19.13;78.31;101498.28;4935827;29;20063;-78
2023/05/18 09:58:03;;;;;;;12.35;5.35;;;;;;;19.12;80.10;101493.84;4938810;29;20028;-77
2023/05/18 10:00:28;;;;;;;9.50;5.20;;;;;;;19.16;78.58;101484.38;4940510;29;20114;-77
2023/05/18 10:02:55;;;;;;;12.25;6.18;;;;;;;19.22;76.27;101492.69;4923206;29;20035;-77
2023/05/18 10:05:22;;;;;;;10.27;5.10;;;;;;;19.38;78.79;101491.88;4923537;29;20110;-77
2023/05/18 10:07:49;;;;;;;12.45;5.22;;;;;;;19.51;78.58;101480.78;4926996;29;20118;-77
2023/05/18 10:10:19;;;;;;;14.05;6.03;;;;;;;19.59;77.69;101489.25;4923527;29;20071;-77
2023/05/18 10:12:44;;;;;;;9.50;4.82;;;;;;;19.74;74.55;101490.75;4927564;29;20485;-77
2023/05/18 10:15:15;;;;;;;14.05;5.60;;;;;;;19.90;75.02;101482.63;4926673;29;20134;-77
2023/05/18 10:17:42;;;;;;;8.88;5.25;;;;;;;19.98;71.68;101478.13;4930012;29;20106;-77
2023/05/18 10:20:08;;;;;;;14.98;5.57;;;;;;;20.19;71.29;101473.41;4923685;29;20039;-77
2023/05/18 10:22:34;;;;;;;12.48;6.00;;;;;;;20.30;73.61;101477.53;4942422;29;20055;-77
2023/05/18 10:25:00;;;;;;;10.18;5.55;;;;;;;20.39;65.35;101469.03;4909492;29;20559;-77
2023/05/18 10:27:26;;;;;;;13.68;5.57;;;;;;;20.51;63.28;101474.81;4929299;29;20036;-78
2023/05/18 10:29:54;;;;;;;9.10;4.45;;;;;;;20.57;62.38;101471.84;4936791;29;20039;-78
2023/05/18 10:32:19;;;;;;;15.13;5.82;;;;;;;20.66;63.72;101472.63;4929263;29;20046;-77
2023/05/18 10:34:45;;;;;;;13.60;6.40;;;;;;;20.67;67.47;101472.28;4913587;29;20464;-77
2023/05/18 10:37:11;;;;;;;16.10;6.90;;;;;;;20.69;67.63;101477.56;4931181;29;20051;-77
2023/05/18 10:39:36;;;;;;;12.98;6.00;;;;;;;20.77;67.03;101470.25;4935413;29;20076;-77
2023/05/18 10:42:02;;;;;;;16.02;6.63;;;;;;;20.81;68.64;101471.19;4937708;29;20027;-77
2023/05/18 10:44:28;;;;;;;12.52;5.55;;;;;;;20.97;65.64;101469.44;4938065;29;20090;-78
2023/05/18 10:46:53;;;;;;;13.25;5.82;;;;;;;21.08;64.73;101464.22;4922612;29;20512;-78
2023/05/18 10:49:22;;;;;;;13.60;5.57;;;;;;;21.18;63.44;101458.19;4931648;29;20099;-78
2023/05/18 10:51:47;;;;;;;14.13;5.60;;;;;;;21.25;62.40;101468.94;4937536;29;20433;-78
2023/05/18 10:54:13;;;;;;;12.93;5.55;;;;;;;21.18;61.91;101467.50;4908839;29;20032;-77
2023/05/18 10:56:43;;;;;;;12.05;5.53;;;;;;;21.14;59.86;101462.84;4939338;29;20050;-77
2023/05/18 10:59:09;;;;;;;9.88;5.10;;;;;;;21.04;60.53;101466.09;4943160;29;20034;-78
2023/05/18 11:01:34;;;;;;;11.63;5.60;;;;;;;21.15;61.19;101458.88;4929264;29;20493;-77
2023/05/18 11:04:03;;;;;;;12.60;5.90;;;;;;;21.14;57.61;101455.22;4922307;29;20099;-77
2023/05/18 11:06:29;;;;;;;11.68;5.72;;;;;;;20.94;57.64;101467.31;4936879;29;20500;-78
2023/05/18 11:08:54;;;;;;;13.05;5.53;;;;;;;20.87;59.10;101464.22;4922529;29;20032;-77
2023/05/18 11:11:23;;;;;;;14.05;5.63;;;;;;;20.82;58.76;101464.41;4934845;29;20038;-77
2023/05/18 11:13:49;;;;;;;12.70;5.78;;;;;;;20.75;60.14;101460.13;4920652;29;20028;-78